sensor_id;sensor_type;location;lat;lon;timestamp;pressure;altitude;pressure_sealevel;temperature;humidity
71504;BME280;59323;50.874;7.028;2023-02-21T00:01:15;101792.78;;;7.59;95.43
71504;BME280;59323;50.874;7.028;2023-02-21T00:03:58;101800.88;;;7.59;95.81
71504;BME280;59323;50.874;7.028;2023-02-21T00:06:43;101803.91;;;7.57;95.97
71504;BME280;59323;50.874;7.028;2023-02-21T00:09:28;101798.66;;;7.52;95.91
71504;BME280;59323;50.874;7.028;2023-02-21T00:12:12;101789.75;;;7.52;95.75
71504;BME280;59323;50.874;7.028;2023-02-21T00:14:56;101782.75;;;7.51;95.79
71504;BME280;59323;50.874;7.028;2023-02-21T00:17:40;101783.06;;;7.49;95.43
71504;BME280;59323;50.874;7.028;2023-02-21T00:20:25;101786.09;;;7.48;96.05
71504;BME280;59323;50.874;7.028;2023-02-21T00:23:09;101793.41;;;7.47;96.08
71504;BME280;59323;50.874;7.028;2023-02-21T00:25:54;101796.75;;;7.44;95.93
71504;BME280;59323;50.874;7.028;2023-02-21T00:28:38;101781.63;;;7.43;96.26
71504;BME280;59323;50.874;7.028;2023-02-21T00:31:21;101790.84;;;7.42;96.17
71504;BME280;59323;50.874;7.028;2023-02-21T00:34:05;101798.50;;;7.40;96.39
71504;BME280;59323;50.874;7.028;2023-02-21T00:36:51;101799.59;;;7.39;96.67
71504;BME280;59323;50.874;7.028;2023-02-21T00:39:35;101802.94;;;7.36;96.77
71504;BME280;59323;50.874;7.028;2023-02-21T00:42:19;101808.34;;;7.36;96.90
71504;BME280;59323;50.874;7.028;2023-02-21T00:45:03;101809.16;;;7.37;96.94
71504;BME280;59323;50.874;7.028;2023-02-21T00:47:48;101809.16;;;7.37;96.66
71504;BME280;59323;50.874;7.028;2023-02-21T00:50:32;101810.56;;;7.34;96.22
71504;BME280;59323;50.874;7.028;2023-02-21T00:53:16;101802.94;;;7.36;96.54
71504;BME280;59323;50.874;7.028;2023-02-21T00:55:59;101799.44;;;7.36;96.77
71504;BME280;59323;50.874;7.028;2023-02-21T00:58:43;101795.47;;;7.33;96.84
71504;BME280;59323;50.874;7.028;2023-02-21T01:01:27;101796.56;;;7.32;97.02
71504;BME280;59323;50.874;7.028;2023-02-21T01:04:11;101810.56;;;7.34;97.37
71504;BME280;59323;50.874;7.028;2023-02-21T01:06:55;101794.97;;;7.31;97.24
71504;BME280;59323;50.874;7.028;2023-02-21T01:09:40;101797.19;;;7.29;97.19
71504;BME280;59323;50.874;7.028;2023-02-21T01:12:24;101791.00;;;7.28;97.56
71504;BME280;59323;50.874;7.028;2023-02-21T01:15:08;101795.28;;;7.29;97.08
71504;BME280;59323;50.874;7.028;2023-02-21T01:17:52;101789.41;;;7.27;97.26
71504;BME280;59323;50.874;7.028;2023-02-21T01:20:36;101787.50;;;7.28;96.64
71504;BME280;59323;50.874;7.028;2023-02-21T01:23:19;101789.41;;;7.27;96.58
71504;BME280;59323;50.874;7.028;2023-02-21T01:26:03;101799.91;;;7.29;96.76
71504;BME280;59323;50.874;7.028;2023-02-21T01:28:47;101795.78;;;7.31;96.71
71504;BME280;59323;50.874;7.028;2023-02-21T01:31:31;101803.56;;;7.33;96.16
71504;BME280;59323;50.874;7.028;2023-02-21T01:34:15;101787.50;;;7.28;96.41
71504;BME280;59323;50.874;7.028;2023-02-21T01:36:59;101788.94;;;7.25;97.15
71504;BME280;59323;50.874;7.028;2023-02-21T01:39:43;101784.63;;;7.24;97.53
71504;BME280;59323;50.874;7.028;2023-02-21T01:42:27;101784.63;;;7.24;96.91
71504;BME280;59323;50.874;7.028;2023-02-21T01:48:01;101778.44;;;7.24;96.85
71504;BME280;59323;50.874;7.028;2023-02-21T01:50:45;101784.94;;;7.23;96.88
71504;BME280;59323;50.874;7.028;2023-02-21T01:53:29;101779.53;;;7.23;96.79
71504;BME280;59323;50.874;7.028;2023-02-21T01:56:13;101775.25;;;7.22;96.71
71504;BME280;59323;50.874;7.028;2023-02-21T01:58:59;101773.81;;;7.24;96.68
71504;BME280;59323;50.874;7.028;2023-02-21T02:02:08;101776.53;;;7.24;96.99
71504;BME280;59323;50.874;7.028;2023-02-21T02:04:56;101774.13;;;7.23;96.85
71504;BME280;59323;50.874;7.028;2023-02-21T02:07:41;101772.53;;;7.22;97.09
71504;BME280;59323;50.874;7.028;2023-02-21T02:10:25;101773.34;;;7.22;97.07
71504;BME280;59323;50.874;7.028;2023-02-21T02:35:21;101757.59;;;7.16;98.08
71504;BME280;59323;50.874;7.028;2023-02-21T02:38:30;101753.25;;;7.15;97.91
71504;BME280;59323;50.874;7.028;2023-02-21T02:40:59;101755.38;;;7.18;97.59
71504;BME280;59323;50.874;7.028;2023-02-21T02:43:34;101757.28;;;7.17;97.90
71504;BME280;59323;50.874;7.028;2023-02-21T02:46:35;101736.88;;;7.11;97.58
71504;BME280;59323;50.874;7.028;2023-02-21T02:49:07;101744.88;;;7.16;97.98
71504;BME280;59323;50.874;7.028;2023-02-21T02:51:35;101740.56;;;7.15;98.23
71504;BME280;59323;50.874;7.028;2023-02-21T02:54:01;101756.97;;;7.19;98.00
71504;BME280;59323;50.874;7.028;2023-02-21T02:56:26;101743.28;;;7.15;97.94
71504;BME280;59323;50.874;7.028;2023-02-21T03:10:08;101746.47;;;7.17;97.68
71504;BME280;59323;50.874;7.028;2023-02-21T03:15:06;101739.47;;;7.16;98.10
71504;BME280;59323;50.874;7.028;2023-02-21T03:17:38;101731.03;;;7.18;98.17
71504;BME280;59323;50.874;7.028;2023-02-21T03:20:06;101732.16;;;7.17;98.27
71504;BME280;59323;50.874;7.028;2023-02-21T03:22:34;101731.03;;;7.18;98.26
71504;BME280;59323;50.874;7.028;2023-02-21T03:25:01;101738.84;;;7.19;98.11
71504;BME280;59323;50.874;7.028;2023-02-21T03:27:28;101736.44;;;7.18;98.50
71504;BME280;59323;50.874;7.028;2023-02-21T03:29:57;101738.34;;;7.17;98.69
71504;BME280;59323;50.874;7.028;2023-02-21T03:32:28;101745.66;;;7.17;98.56
71504;BME280;59323;50.874;7.028;2023-02-21T03:34:55;101741.53;;;7.19;98.85
71504;BME280;59323;50.874;7.028;2023-02-21T03:37:32;101734.84;;;7.17;98.39
71504;BME280;59323;50.874;7.028;2023-02-21T03:39:59;101737.25;;;7.18;98.52
71504;BME280;59323;50.874;7.028;2023-02-21T03:42:25;101731.53;;;7.20;99.40
71504;BME280;59323;50.874;7.028;2023-02-21T03:44:50;101729.44;;;7.17;99.08
71504;BME280;59323;50.874;7.028;2023-02-21T03:47:15;101731.97;;;7.13;98.75
71504;BME280;59323;50.874;7.028;2023-02-21T03:49:41;101732.16;;;7.17;98.63
71504;BME280;59323;50.874;7.028;2023-02-21T03:52:06;101728.34;;;7.18;98.81
71504;BME280;59323;50.874;7.028;2023-02-21T03:54:33;101729.94;;;7.19;98.83
71504;BME280;59323;50.874;7.028;2023-02-21T03:56:59;101735.34;;;7.19;98.81
71504;BME280;59323;50.874;7.028;2023-02-21T03:59:24;101730.25;;;7.17;98.53
71504;BME280;59323;50.874;7.028;2023-02-21T04:01:49;101712.25;;;7.13;99.30
71504;BME280;59323;50.874;7.028;2023-02-21T04:04:15;101717.06;;;7.16;99.18
71504;BME280;59323;50.874;7.028;2023-02-21T04:06:40;101719.13;;;7.19;99.20
71504;BME280;59323;50.874;7.028;2023-02-21T04:09:05;101716.41;;;7.19;98.78
71504;BME280;59323;50.874;7.028;2023-02-21T04:11:31;101714.03;;;7.17;98.77
71504;BME280;59323;50.874;7.028;2023-02-21T04:13:56;101718.31;;;7.18;98.39
71504;BME280;59323;50.874;7.028;2023-02-21T04:16:21;101715.63;;;7.18;99.08
71504;BME280;59323;50.874;7.028;2023-02-21T04:18:47;101717.22;;;7.19;99.04
71504;BME280;59323;50.874;7.028;2023-02-21T04:21:16;101717.53;;;7.18;98.76
71504;BME280;59323;50.874;7.028;2023-02-21T04:23:42;101719.59;;;7.21;98.95
71504;BME280;59323;50.874;7.028;2023-02-21T04:26:07;101707.50;;;7.18;98.71
71504;BME280;59323;50.874;7.028;2023-02-21T04:28:32;101705.59;;;7.19;99.23
71504;BME280;59323;50.874;7.028;2023-02-21T04:30:58;101712.91;;;7.18;99.24
71504;BME280;59323;50.874;7.028;2023-02-21T04:33:23;101714.50;;;7.19;98.78
71504;BME280;59323;50.874;7.028;2023-02-21T04:35:48;101708.63;;;7.17;98.55
71504;BME280;59323;50.874;7.028;2023-02-21T04:38:15;101707.19;;;7.20;99.12
71504;BME280;59323;50.874;7.028;2023-02-21T04:40:40;101711.00;;;7.19;98.35
71504;BME280;59323;50.874;7.028;2023-02-21T04:43:06;101719.59;;;7.21;98.69
71504;BME280;59323;50.874;7.028;2023-02-21T04:45:31;101714.19;;;7.21;99.31
71504;BME280;59323;50.874;7.028;2023-02-21T04:47:56;101722.31;;;7.21;99.16
71504;BME280;59323;50.874;7.028;2023-02-21T04:50:22;101719.28;;;7.22;99.45
71504;BME280;59323;50.874;7.028;2023-02-21T04:52:47;101718.81;;;7.20;99.88
71504;BME280;59323;50.874;7.028;2023-02-21T04:55:14;101713.72;;;7.19;99.81
71504;BME280;59323;50.874;7.028;2023-02-21T04:57:39;101714.03;;;7.17;100.00
71504;BME280;59323;50.874;7.028;2023-02-21T05:00:05;101713.72;;;7.19;99.67
71504;BME280;59323;50.874;7.028;2023-02-21T05:02:32;101712.13;;;7.18;99.82
71504;BME280;59323;50.874;7.028;2023-02-21T05:04:58;101705.59;;;7.19;99.56
71504;BME280;59323;50.874;7.028;2023-02-21T05:07:23;101702.91;;;7.19;99.94
71504;BME280;59323;50.874;7.028;2023-02-21T05:09:48;101708.78;;;7.21;100.00
71504;BME280;59323;50.874;7.028;2023-02-21T05:12:14;101706.09;;;7.21;100.00
71504;BME280;59323;50.874;7.028;2023-02-21T05:14:40;101715.78;;;7.22;100.00
71504;BME280;59323;50.874;7.028;2023-02-21T05:17:06;101714.19;;;7.21;100.00
71504;BME280;59323;50.874;7.028;2023-02-21T05:19:31;101712.28;;;7.21;100.00
71504;BME280;59323;50.874;7.028;2023-02-21T05:21:59;101705.75;;;7.22;99.74
71504;BME280;59323;50.874;7.028;2023-02-21T05:24:27;101708.16;;;7.24;99.25
71504;BME280;59323;50.874;7.028;2023-02-21T05:26:54;101709.56;;;7.21;99.66
71504;BME280;59323;50.874;7.028;2023-02-21T05:29:20;101710.22;;;7.18;99.25
71504;BME280;59323;50.874;7.028;2023-02-21T05:31:46;101706.25;;;7.16;99.35
71504;BME280;59323;50.874;7.028;2023-02-21T05:34:12;101710.03;;;7.15;99.02
71504;BME280;59323;50.874;7.028;2023-02-21T05:36:38;101708.94;;;7.16;99.04
71504;BME280;59323;50.874;7.028;2023-02-21T05:39:04;101711.13;;;7.14;99.27
71504;BME280;59323;50.874;7.028;2023-02-21T05:41:30;101710.84;;;7.15;99.41
71504;BME280;59323;50.874;7.028;2023-02-21T05:43:55;101710.84;;;7.15;99.26
71504;BME280;59323;50.874;7.028;2023-02-21T05:46:32;101711.94;;;7.14;99.30
71504;BME280;59323;50.874;7.028;2023-02-21T05:48:59;101704.13;;;7.13;99.59
71504;BME280;59323;50.874;7.028;2023-02-21T05:51:25;101711.13;;;7.14;99.51
71504;BME280;59323;50.874;7.028;2023-02-21T05:53:51;101704.63;;;7.15;99.60
71504;BME280;59323;50.874;7.028;2023-02-21T05:56:17;101705.44;;;7.15;99.43
71504;BME280;59323;50.874;7.028;2023-02-21T05:58:44;101700.97;;;7.11;99.60
71504;BME280;59323;50.874;7.028;2023-02-21T06:01:09;101701.75;;;7.11;99.64
71504;BME280;59323;50.874;7.028;2023-02-21T06:03:34;101699.06;;;7.11;99.49
71504;BME280;59323;50.874;7.028;2023-02-21T06:06:00;101703.66;;;7.11;99.64
71504;BME280;59323;50.874;7.028;2023-02-21T06:08:25;101703.66;;;7.11;99.29
71504;BME280;59323;50.874;7.028;2023-02-21T06:10:51;101696.97;;;7.08;99.34
71504;BME280;59323;50.874;7.028;2023-02-21T06:13:16;101717.50;;;7.09;99.65
71504;BME280;59323;50.874;7.028;2023-02-21T06:15:41;101714.00;;;7.09;99.31
71504;BME280;59323;50.874;7.028;2023-02-21T06:18:07;101716.38;;;7.10;100.00
71504;BME280;59323;50.874;7.028;2023-02-21T06:20:32;101719.88;;;7.11;99.32
71504;BME280;59323;50.874;7.028;2023-02-21T06:22:58;101717.16;;;7.11;99.38
71504;BME280;59323;50.874;7.028;2023-02-21T06:25:24;101718.28;;;7.10;99.25
71504;BME280;59323;50.874;7.028;2023-02-21T06:27:49;101707.94;;;7.12;99.47
71504;BME280;59323;50.874;7.028;2023-02-21T06:30:15;101721.47;;;7.12;99.55
71504;BME280;59323;50.874;7.028;2023-02-21T06:32:41;101723.38;;;7.11;99.57
71504;BME280;59323;50.874;7.028;2023-02-21T06:35:07;101711.78;;;7.11;99.47
71504;BME280;59323;50.874;7.028;2023-02-21T06:37:33;101725.28;;;7.11;99.89
71504;BME280;59323;50.874;7.028;2023-02-21T06:39:59;101725.28;;;7.11;99.47
71504;BME280;59323;50.874;7.028;2023-02-21T06:42:24;101722.91;;;7.09;99.24
71504;BME280;59323;50.874;7.028;2023-02-21T06:44:49;101718.28;;;7.10;98.98
71504;BME280;59323;50.874;7.028;2023-02-21T06:47:15;101720.66;;;7.11;99.10
71504;BME280;59323;50.874;7.028;2023-02-21T06:49:41;101716.84;;;7.12;99.30
71504;BME280;59323;50.874;7.028;2023-02-21T06:52:08;101721.47;;;7.12;99.07
71504;BME280;59323;50.874;7.028;2023-02-21T06:54:33;101727.19;;;7.10;99.67
71504;BME280;59323;50.874;7.028;2023-02-21T06:56:59;101723.38;;;7.11;99.23
71504;BME280;59323;50.874;7.028;2023-02-21T06:59:28;101720.66;;;7.11;99.15
71504;BME280;59323;50.874;7.028;2023-02-21T07:01:55;101734.19;;;7.11;99.21
71504;BME280;59323;50.874;7.028;2023-02-21T07:04:21;101724.16;;;7.12;99.13
71504;BME280;59323;50.874;7.028;2023-02-21T07:06:46;101712.88;;;7.10;99.35
71504;BME280;59323;50.874;7.028;2023-02-21T07:09:11;101722.56;;;7.11;99.71
71504;BME280;59323;50.874;7.028;2023-02-21T07:11:37;101724.66;;;7.14;99.35
71504;BME280;59323;50.874;7.028;2023-02-21T07:14:03;101721.47;;;7.12;99.34
71504;BME280;59323;50.874;7.028;2023-02-21T07:16:28;101717.84;;;7.16;99.49
71504;BME280;59323;50.874;7.028;2023-02-21T07:18:53;101719.91;;;7.19;99.58
71504;BME280;59323;50.874;7.028;2023-02-21T07:21:20;101718.81;;;7.20;99.82
71504;BME280;59323;50.874;7.028;2023-02-21T07:23:46;101722.31;;;7.21;99.99
71504;BME280;59323;50.874;7.028;2023-02-21T07:26:13;101718.47;;;7.22;100.00
71504;BME280;59323;50.874;7.028;2023-02-21T07:28:38;101726.59;;;7.22;100.00
71504;BME280;59323;50.874;7.028;2023-02-21T07:31:04;101725.97;;;7.25;100.00
71504;BME280;59323;50.874;7.028;2023-02-21T07:33:30;101725.31;;;7.28;100.00
71504;BME280;59323;50.874;7.028;2023-02-21T07:35:55;101717.06;;;7.33;100.00
71504;BME280;59323;50.874;7.028;2023-02-21T07:40:46;101721.19;;;7.30;100.00
71504;BME280;59323;50.874;7.028;2023-02-21T07:43:11;101724.38;;;7.32;100.00
71504;BME280;59323;50.874;7.028;2023-02-21T07:45:36;101730.25;;;7.35;100.00
71504;BME280;59323;50.874;7.028;2023-02-21T07:48:02;101729.94;;;7.36;100.00
71504;BME280;59323;50.874;7.028;2023-02-21T07:50:27;101731.06;;;7.35;100.00
71504;BME280;59323;50.874;7.028;2023-02-21T07:52:53;101732.63;;;7.36;100.00
71504;BME280;59323;50.874;7.028;2023-02-21T07:55:18;101731.22;;;7.39;100.00
71504;BME280;59323;50.874;7.028;2023-02-21T07:57:44;101734.72;;;7.39;100.00
71504;BME280;59323;50.874;7.028;2023-02-21T08:00:09;101728.19;;;7.40;100.00
71504;BME280;59323;50.874;7.028;2023-02-21T08:02:35;101735.19;;;7.41;100.00
71504;BME280;59323;50.874;7.028;2023-02-21T08:05:00;101720.38;;;7.47;100.00
71504;BME280;59323;50.874;7.028;2023-02-21T08:07:25;101726.59;;;7.48;100.00
71504;BME280;59323;50.874;7.028;2023-02-21T08:09:51;101731.84;;;7.53;100.00
71504;BME280;59323;50.874;7.028;2023-02-21T08:12:16;101739.63;;;7.54;100.00
71504;BME280;59323;50.874;7.028;2023-02-21T08:14:41;101735.03;;;7.55;100.00
71504;BME280;59323;50.874;7.028;2023-02-21T08:17:07;101732.31;;;7.55;100.00
71504;BME280;59323;50.874;7.028;2023-02-21T08:19:32;101728.19;;;7.57;100.00
71504;BME280;59323;50.874;7.028;2023-02-21T08:21:57;101725.94;;;7.59;100.00
71504;BME280;59323;50.874;7.028;2023-02-21T08:24:23;101728.34;;;7.61;100.00
71504;BME280;59323;50.874;7.028;2023-02-21T08:26:48;101726.59;;;7.65;100.00
71504;BME280;59323;50.874;7.028;2023-02-21T08:29:14;101715.44;;;7.67;100.00
71504;BME280;59323;50.874;7.028;2023-02-21T08:31:42;101724.97;;;7.73;100.00
71504;BME280;59323;50.874;7.028;2023-02-21T08:34:09;101728.16;;;7.75;99.78
71504;BME280;59323;50.874;7.028;2023-02-21T08:36:37;101723.09;;;7.82;98.86
71504;BME280;59323;50.874;7.028;2023-02-21T08:39:03;101728.19;;;7.83;98.23
71504;BME280;59323;50.874;7.028;2023-02-21T08:41:43;101729.44;;;7.86;98.19
71504;BME280;59323;50.874;7.028;2023-02-21T08:44:10;101722.13;;;7.86;98.47
71504;BME280;59323;50.874;7.028;2023-02-21T08:46:36;101725.63;;;7.87;98.56
71504;BME280;59323;50.874;7.028;2023-02-21T08:49:04;101726.41;;;7.87;97.89
71504;BME280;59323;50.874;7.028;2023-02-21T08:51:31;101731.03;;;7.87;97.88
71504;BME280;59323;50.874;7.028;2023-02-21T08:53:56;101727.22;;;7.88;98.13
71504;BME280;59323;50.874;7.028;2023-02-21T08:56:23;101735.00;;;7.89;98.00
71504;BME280;59323;50.874;7.028;2023-02-21T08:58:49;101724.66;;;7.91;98.30
71504;BME280;59323;50.874;7.028;2023-02-21T09:01:16;101727.38;;;7.91;97.80
71504;BME280;59323;50.874;7.028;2023-02-21T09:03:41;101728.31;;;7.95;97.89
71504;BME280;59323;50.874;7.028;2023-02-21T09:06:07;101723.69;;;7.96;98.04
71504;BME280;59323;50.874;7.028;2023-02-21T09:08:33;101715.41;;;8.01;97.79
71504;BME280;59323;50.874;7.028;2023-02-21T09:11:01;101720.50;;;8.03;98.36
71504;BME280;59323;50.874;7.028;2023-02-21T09:13:27;101716.66;;;8.04;97.04
71504;BME280;59323;50.874;7.028;2023-02-21T09:15:54;101712.03;;;8.04;96.61
71504;BME280;59323;50.874;7.028;2023-02-21T09:18:20;101708.22;;;8.05;96.41
71504;BME280;59323;50.874;7.028;2023-02-21T09:20:46;101705.50;;;8.05;96.51
71504;BME280;59323;50.874;7.028;2023-02-21T09:23:16;101707.09;;;8.06;95.81
71504;BME280;59323;50.874;7.028;2023-02-21T09:25:44;101706.78;;;8.08;96.36
71504;BME280;59323;50.874;7.028;2023-02-21T09:28:10;101710.75;;;8.10;96.48
71504;BME280;59323;50.874;7.028;2023-02-21T09:30:35;101704.03;;;8.16;96.05
71504;BME280;59323;50.874;7.028;2023-02-21T09:33:00;101696.06;;;8.20;96.02
71504;BME280;59323;50.874;7.028;2023-02-21T09:35:26;101699.06;;;8.27;94.71
71504;BME280;59323;50.874;7.028;2023-02-21T09:37:54;101701.91;;;8.31;94.54
71504;BME280;59323;50.874;7.028;2023-02-21T09:42:57;101704.31;;;8.32;94.57
71504;BME280;59323;50.874;7.028;2023-02-21T09:45:30;101697.75;;;8.42;94.03
71504;BME280;59323;50.874;7.028;2023-02-21T09:47:58;101700.31;;;8.47;94.05
71504;BME280;59323;50.874;7.028;2023-02-21T09:50:28;101701.91;;;8.48;93.41
71504;BME280;59323;50.874;7.028;2023-02-21T09:52:59;101697.94;;;8.45;93.99
71504;BME280;59323;50.874;7.028;2023-02-21T09:55:32;101696.03;;;8.46;94.21
71504;BME280;59323;50.874;7.028;2023-02-21T09:57:59;101694.09;;;8.46;94.23
71504;BME280;59323;50.874;7.028;2023-02-21T10:00:36;101700.13;;;8.52;94.63
71504;BME280;59323;50.874;7.028;2023-02-21T10:08:58;101693.69;;;8.65;94.82
71504;BME280;59323;50.874;7.028;2023-02-21T10:14:36;101696.34;;;8.74;94.00
71504;BME280;59323;50.874;7.028;2023-02-21T10:17:20;101696.47;;;8.77;93.77
71504;BME280;59323;50.874;7.028;2023-02-21T10:19:54;101691.66;;;8.83;93.74
71504;BME280;59323;50.874;7.028;2023-02-21T10:22:27;101699.47;;;8.84;93.54
71504;BME280;59323;50.874;7.028;2023-02-21T10:24:55;101689.75;;;8.83;92.78
71504;BME280;59323;50.874;7.028;2023-02-21T10:27:23;101696.28;;;8.82;92.77
71504;BME280;59323;50.874;7.028;2023-02-21T10:29:53;101694.84;;;8.85;92.87
71504;BME280;59323;50.874;7.028;2023-02-21T10:32:21;101691.47;;;8.88;92.88
71504;BME280;59323;50.874;7.028;2023-02-21T10:34:47;101691.13;;;8.89;93.11
71504;BME280;59323;50.874;7.028;2023-02-21T10:40:03;101695.25;;;8.96;92.26
71504;BME280;59323;50.874;7.028;2023-02-21T10:42:38;101705.09;;;9.00;92.21
71504;BME280;59323;50.874;7.028;2023-02-21T10:45:06;101707.16;;;9.03;92.27
71504;BME280;59323;50.874;7.028;2023-02-21T10:47:48;101693.25;;;9.05;92.75
71504;BME280;59323;50.874;7.028;2023-02-21T10:50:38;101693.59;;;9.03;92.51
71504;BME280;59323;50.874;7.028;2023-02-21T10:53:05;101685.59;;;9.07;92.68
71504;BME280;59323;50.874;7.028;2023-02-21T10:55:30;101693.06;;;9.10;92.40
71504;BME280;59323;50.874;7.028;2023-02-21T10:57:57;101692.91;;;9.15;92.10
71504;BME280;59323;50.874;7.028;2023-02-21T11:00:47;101686.16;;;9.21;92.01
71504;BME280;59323;50.874;7.028;2023-02-21T11:03:21;101682.09;;;9.27;92.06
71504;BME280;59323;50.874;7.028;2023-02-21T11:05:49;101688.47;;;9.31;91.37
71504;BME280;59323;50.874;7.028;2023-02-21T11:08:37;101684.63;;;9.32;92.32
71504;BME280;59323;50.874;7.028;2023-02-21T11:11:02;101682.69;;;9.33;91.30
71504;BME280;59323;50.874;7.028;2023-02-21T11:13:28;101681.91;;;9.32;90.75
71504;BME280;59323;50.874;7.028;2023-02-21T11:16:18;101678.72;;;9.30;90.55
71504;BME280;59323;50.874;7.028;2023-02-21T11:18:44;101666.75;;;9.31;90.53
71504;BME280;59323;50.874;7.028;2023-02-21T11:21:15;101675.16;;;9.38;91.32
71504;BME280;59323;50.874;7.028;2023-02-21T11:24:01;101668.41;;;9.44;90.95
71504;BME280;59323;50.874;7.028;2023-02-21T11:26:51;101668.66;;;9.51;90.46
71504;BME280;59323;50.874;7.028;2023-02-21T11:29:21;101661.22;;;9.61;90.23
71504;BME280;59323;50.874;7.028;2023-02-21T11:31:48;101658.63;;;9.64;89.56
71504;BME280;59323;50.874;7.028;2023-02-21T11:34:15;101653.66;;;9.66;89.22
71504;BME280;59323;50.874;7.028;2023-02-21T11:36:45;101651.72;;;9.67;89.76
71504;BME280;59323;50.874;7.028;2023-02-21T11:39:31;101646.63;;;9.65;88.72
71504;BME280;59323;50.874;7.028;2023-02-21T11:42:01;101644.59;;;9.62;88.46
71504;BME280;59323;50.874;7.028;2023-02-21T11:44:39;101647.31;;;9.62;88.79
71504;BME280;59323;50.874;7.028;2023-02-21T11:47:25;101634.19;;;9.64;89.13
71504;BME280;59323;50.874;7.028;2023-02-21T11:55:18;101623.41;;;9.76;88.79
71504;BME280;59323;50.874;7.028;2023-02-21T11:58:22;101616.19;;;9.93;88.97
71504;BME280;59323;50.874;7.028;2023-02-21T12:06:27;101600.59;;;10.38;87.49
71504;BME280;59323;50.874;7.028;2023-02-21T12:09:18;101603.28;;;10.63;87.16
71504;BME280;59323;50.874;7.028;2023-02-21T12:12:08;101586.81;;;10.84;86.58
71504;BME280;59323;50.874;7.028;2023-02-21T12:20:07;101578.53;;;11.20;83.43
71504;BME280;59323;50.874;7.028;2023-02-21T12:35:53;101565.03;;;11.39;81.11
71504;BME280;59323;50.874;7.028;2023-02-21T12:39:03;101555.03;;;11.43;81.65
71504;BME280;59323;50.874;7.028;2023-02-21T12:41:53;101552.31;;;11.43;80.77
71504;BME280;59323;50.874;7.028;2023-02-21T12:46:58;101552.41;;;11.47;80.71
71504;BME280;59323;50.874;7.028;2023-02-21T12:49:39;101548.97;;;11.50;79.86
71504;BME280;59323;50.874;7.028;2023-02-21T12:54:48;101538.63;;;11.56;80.57
71504;BME280;59323;50.874;7.028;2023-02-21T12:57:21;101538.00;;;11.62;81.44
71504;BME280;59323;50.874;7.028;2023-02-21T13:05:36;101528.75;;;11.79;79.75
71504;BME280;59323;50.874;7.028;2023-02-21T13:10:59;101523.63;;;11.93;78.68
71504;BME280;59323;50.874;7.028;2023-02-21T13:13:32;101519.13;;;12.01;79.14
71504;BME280;59323;50.874;7.028;2023-02-21T13:16:00;101519.28;;;12.08;78.69
71504;BME280;59323;50.874;7.028;2023-02-21T13:18:30;101519.66;;;12.06;78.89
71504;BME280;59323;50.874;7.028;2023-02-21T13:21:16;101512.41;;;12.14;78.99
71504;BME280;59323;50.874;7.028;2023-02-21T13:26:48;101498.38;;;12.31;77.41
71504;BME280;59323;50.874;7.028;2023-02-21T13:29:33;101492.69;;;12.36;79.04
71504;BME280;59323;50.874;7.028;2023-02-21T13:32:13;101485.88;;;12.46;78.06
71504;BME280;59323;50.874;7.028;2023-02-21T13:35:05;101487.75;;;12.61;77.44
71504;BME280;59323;50.874;7.028;2023-02-21T13:37:33;101482.00;;;12.66;77.30
71504;BME280;59323;50.874;7.028;2023-02-21T13:40:05;101479.41;;;12.74;76.72
71504;BME280;59323;50.874;7.028;2023-02-21T13:42:37;101479.34;;;12.70;75.47
71504;BME280;59323;50.874;7.028;2023-02-21T13:45:21;101474.81;;;12.78;74.79
71504;BME280;59323;50.874;7.028;2023-02-21T13:58:45;101473.66;;;12.79;77.98
71504;BME280;59323;50.874;7.028;2023-02-21T14:03:55;101454.75;;;12.89;76.24
71504;BME280;59323;50.874;7.028;2023-02-21T14:06:30;101469.63;;;12.92;75.36
71504;BME280;59323;50.874;7.028;2023-02-21T14:09:12;101450.81;;;12.87;76.64
71504;BME280;59323;50.874;7.028;2023-02-21T14:11:45;101452.16;;;12.96;73.67
71504;BME280;59323;50.874;7.028;2023-02-21T14:14:38;101454.63;;;12.82;77.57
71504;BME280;59323;50.874;7.028;2023-02-21T14:17:08;101451.41;;;12.77;74.93
71504;BME280;59323;50.874;7.028;2023-02-21T14:19:40;101447.47;;;12.74;75.66
71504;BME280;59323;50.874;7.028;2023-02-21T14:22:10;101445.22;;;12.80;76.82
71504;BME280;59323;50.874;7.028;2023-02-21T14:24:41;101444.81;;;12.78;75.00
71504;BME280;59323;50.874;7.028;2023-02-21T14:29:40;101449.41;;;12.74;75.51
71504;BME280;59323;50.874;7.028;2023-02-21T14:39:55;101430.91;;;12.63;75.94
71504;BME280;59323;50.874;7.028;2023-02-21T15:02:06;101421.72;;;12.33;77.54
71504;BME280;59323;50.874;7.028;2023-02-21T15:10:42;101413.75;;;12.24;77.11
71504;BME280;59323;50.874;7.028;2023-02-21T15:13:21;101410.53;;;12.19;77.84
71504;BME280;59323;50.874;7.028;2023-02-21T15:15:54;101414.78;;;12.16;78.58
71504;BME280;59323;50.874;7.028;2023-02-21T15:18:26;101413.19;;;12.15;77.62
71504;BME280;59323;50.874;7.028;2023-02-21T15:23:32;101406.81;;;12.07;78.50
71504;BME280;59323;50.874;7.028;2023-02-21T15:26:13;101408.31;;;12.05;78.18
71504;BME280;59323;50.874;7.028;2023-02-21T15:28:40;101403.59;;;12.02;78.85
71504;BME280;59323;50.874;7.028;2023-02-21T15:31:08;101398.41;;;11.97;79.10
71504;BME280;59323;50.874;7.028;2023-02-21T15:33:36;101403.06;;;11.96;79.17
71504;BME280;59323;50.874;7.028;2023-02-21T15:38:48;101392.66;;;11.83;79.03
71504;BME280;59323;50.874;7.028;2023-02-21T15:41:43;101404.09;;;11.72;79.42
71504;BME280;59323;50.874;7.028;2023-02-21T15:47:18;101394.34;;;11.56;80.33
71504;BME280;59323;50.874;7.028;2023-02-21T15:50:03;101397.97;;;11.44;80.43
71504;BME280;59323;50.874;7.028;2023-02-21T15:52:35;101400.19;;;11.38;80.74
71504;BME280;59323;50.874;7.028;2023-02-21T16:01:09;101400.28;;;11.10;81.47
71504;BME280;59323;50.874;7.028;2023-02-21T16:14:04;101401.56;;;10.69;83.55
71504;BME280;59323;50.874;7.028;2023-02-21T16:16:34;101393.47;;;10.57;84.45
71504;BME280;59323;50.874;7.028;2023-02-21T16:18:59;101396.34;;;10.48;85.35